Time;durP1;ratioP1;P1;durP2;ratioP2;P2;SDS_P1;SDS_P2;PMS_P1;PMS_P2;Temp;Humidity;BMP_temperature;BMP_pressure;BME280_temperature;BME280_humidity;BME280_pressure;Samples;Min_cycle;Max_cycle;Signal;HPM_P1;HPM_P2
2022/11/08 00:03:54;;;;;;;4.10;1.90;;;;;;;5.21;77.49;93000.91;5033178;28;20045;-76
2022/11/08 00:14:31;;;;;;;3.10;1.60;;;;;;;5.21;77.67;92985.34;5037743;28;20033;-76
2022/11/08 00:16:57;;;;;;;2.72;1.50;;;;;;;5.20;77.48;92976.00;5029217;28;20037;-76
2022/11/08 00:19:23;;;;;;;3.08;1.50;;;;;;;5.22;77.65;92980.94;5030856;28;20454;-76
2022/11/08 00:21:48;;;;;;;3.85;1.73;;;;;;;5.24;76.64;92978.09;5049057;28;20519;-76
2022/11/08 00:24:14;;;;;;;3.25;1.52;;;;;;;5.22;77.17;92975.75;5042718;28;20036;-76
2022/11/08 00:26:39;;;;;;;3.65;1.70;;;;;;;5.20;77.54;92978.59;5050068;28;20471;-76
2022/11/08 00:29:05;;;;;;;3.95;1.70;;;;;;;5.19;76.79;92971.03;5045683;28;20503;-76
2022/11/08 00:31:30;;;;;;;2.80;1.40;;;;;;;5.20;76.29;92973.41;5047756;28;20033;-76
2022/11/08 00:33:56;;;;;;;2.85;1.42;;;;;;;5.20;75.61;92981.19;5051975;28;20090;-76
2022/11/08 00:36:21;;;;;;;3.30;1.55;;;;;;;5.22;75.24;92989.53;5031461;28;20037;-76
2022/11/08 00:38:47;;;;;;;3.33;1.50;;;;;;;5.20;75.41;92985.56;5032040;28;20041;-77
2022/11/08 00:41:13;;;;;;;2.63;1.23;;;;;;;5.29;74.94;92984.16;5050126;28;20044;-76
2022/11/08 00:43:39;;;;;;;2.92;1.50;;;;;;;5.31;74.55;92994.28;5046764;28;20372;-76
2022/11/08 00:46:05;;;;;;;4.78;1.60;;;;;;;5.31;74.50;92994.28;5032242;28;20061;-76
2022/11/08 00:48:30;;;;;;;2.10;1.30;;;;;;;5.32;74.58;92996.66;5034629;28;20036;-76
2022/11/08 00:51:03;;;;;;;3.08;1.40;;;;;;;5.31;74.47;92989.09;5048542;28;20040;-76
2022/11/08 00:53:29;;;;;;;2.47;1.38;;;;;;;5.32;74.34;92995.88;5053520;28;20491;-76
2022/11/08 00:55:59;;;;;;;4.68;1.50;;;;;;;5.32;74.24;92996.66;5038049;28;20028;-76
2022/11/08 00:58:25;;;;;;;4.53;1.50;;;;;;;5.32;74.26;92990.69;5032677;28;20063;-76
2022/11/08 01:00:51;;;;;;;3.15;1.60;;;;;;;5.31;74.03;92989.09;5035147;28;20080;-76
2022/11/08 01:03:19;;;;;;;1.35;1.00;;;;;;;5.30;74.05;92987.53;5048021;28;20041;-76
2022/11/08 01:05:46;;;;;;;2.97;1.40;;;;;;;5.26;74.79;92989.81;5031143;28;20087;-76
2022/11/08 01:08:12;;;;;;;2.38;1.15;;;;;;;5.26;73.88;92996.81;5030649;28;20038;-76
2022/11/08 01:10:43;;;;;;;2.33;1.20;;;;;;;5.22;74.11;92991.31;5037521;28;20036;-76
2022/11/08 01:13:10;;;;;;;3.42;1.38;;;;;;;5.21;74.76;92995.72;5052008;28;20033;-76
2022/11/08 01:15:39;;;;;;;2.40;1.40;;;;;;;5.20;74.44;93003.75;5037729;28;20040;-76
2022/11/08 01:18:06;;;;;;;1.77;1.10;;;;;;;5.18;74.39;92996.22;5030260;28;20063;-76
2022/11/08 01:20:32;;;;;;;2.88;1.33;;;;;;;5.18;74.15;92996.22;5033059;28;20033;-76
2022/11/08 01:22:58;;;;;;;4.45;1.05;;;;;;;5.17;74.15;92992.03;5043038;28;20056;-76
2022/11/08 01:25:24;;;;;;;1.65;1.20;;;;;;;5.15;74.45;92991.47;5029559;28;20033;-76
2022/11/08 01:27:50;;;;;;;1.67;1.00;;;;;;;5.13;74.27;92987.56;5029920;28;20083;-76
2022/11/08 01:30:15;;;;;;;4.85;1.40;;;;;;;5.11;73.91;92987.81;5032078;28;20044;-76
2022/11/08 01:32:41;;;;;;;2.42;1.35;;;;;;;5.11;73.32;92985.22;5043904;28;20044;-76
2022/11/08 01:35:07;;;;;;;3.25;1.23;;;;;;;5.11;73.33;92989.59;5045346;28;20037;-77
2022/11/08 01:37:32;;;;;;;4.95;1.38;;;;;;;5.12;73.63;92991.19;5032812;28;20116;-76
2022/11/08 01:39:58;;;;;;;3.50;1.35;;;;;;;5.12;73.65;92984.19;5030635;28;20507;-76
2022/11/08 01:42:31;;;;;;;2.67;1.30;;;;;;;5.09;73.71;92987.28;5031487;28;20048;-76
2022/11/08 01:45:01;;;;;;;2.75;1.40;;;;;;;5.06;73.60;92979.94;5012975;28;20061;-76
2022/11/08 01:47:26;;;;;;;2.60;1.30;;;;;;;4.99;73.53;92971.56;5040364;28;20094;-76
2022/11/08 01:49:56;;;;;;;2.22;1.30;;;;;;;4.99;73.50;92980.13;5038132;28;20038;-76
2022/11/08 01:52:28;;;;;;;2.17;1.20;;;;;;;4.96;74.00;92972.03;5031412;28;20376;-76
2022/11/08 01:54:56;;;;;;;2.90;1.50;;;;;;;4.94;74.31;92967.09;5039496;28;20029;-76
2022/11/08 01:57:34;;;;;;;2.22;1.20;;;;;;;4.91;74.09;92974.53;5035652;28;20037;-76
2022/11/08 02:00:04;;;;;;;4.97;1.30;;;;;;;4.91;73.86;92966.75;5030604;28;20053;-76
2022/11/08 02:02:35;;;;;;;4.65;1.67;;;;;;;4.89;74.24;92968.84;5036846;28;20127;-76
2022/11/08 02:05:05;;;;;;;2.58;1.48;;;;;;;4.89;74.15;92969.63;5034361;28;20034;-76
2022/11/08 02:07:32;;;;;;;3.65;1.60;;;;;;;4.89;73.87;92967.03;5030000;28;20499;-76
2022/11/08 02:09:59;;;;;;;2.85;1.30;;;;;;;4.89;74.70;92971.44;5027594;28;20041;-76
2022/11/08 02:12:26;;;;;;;2.67;1.45;;;;;;;4.88;73.99;92964.66;5031006;28;20029;-77
2022/11/08 02:14:52;;;;;;;3.25;1.58;;;;;;;4.91;73.96;92956.38;5030354;28;20120;-76
2022/11/08 02:17:18;;;;;;;3.17;1.60;;;;;;;4.90;74.37;92960.81;5029849;28;20168;-76
2022/11/08 02:19:46;;;;;;;2.50;1.45;;;;;;;4.90;74.29;92953.00;5031303;28;20049;-76
2022/11/08 02:22:18;;;;;;;2.65;1.23;;;;;;;4.88;74.27;92954.28;5028928;28;20116;-76
2022/11/08 02:24:44;;;;;;;3.00;1.35;;;;;;;4.87;74.35;92947.53;5031219;28;20037;-77
2022/11/08 02:27:11;;;;;;;4.80;1.77;;;;;;;4.86;73.82;92958.91;5043716;28;20464;-76
2022/11/08 02:29:36;;;;;;;5.18;1.60;;;;;;;4.86;73.56;92945.94;5031835;28;20119;-76
2022/11/08 02:32:03;;;;;;;3.63;1.40;;;;;;;4.88;73.51;92938.72;5030497;28;20080;-76
2022/11/08 02:34:41;;;;;;;2.25;1.30;;;;;;;4.92;73.50;92934.63;5045511;28;20479;-76
2022/11/08 02:37:07;;;;;;;1.90;1.10;;;;;;;4.93;73.90;92946.56;5010980;28;20081;-76
2022/11/08 02:39:33;;;;;;;2.83;1.10;;;;;;;4.95;74.10;92939.31;5027806;28;20037;-76
2022/11/08 02:42:00;;;;;;;2.30;1.10;;;;;;;4.93;74.60;92941.38;5029767;28;20039;-76
2022/11/08 02:44:26;;;;;;;1.70;0.95;;;;;;;4.92;74.68;92934.63;5034000;28;20053;-76
2022/11/08 02:46:52;;;;;;;2.50;1.20;;;;;;;4.93;74.84;92934.41;5051495;28;20032;-76
2022/11/08 02:49:18;;;;;;;2.10;1.20;;;;;;;4.96;74.66;92941.69;5039331;28;20041;-76
2022/11/08 02:51:43;;;;;;;2.35;1.38;;;;;;;4.98;74.40;92938.88;5051478;28;20041;-76
2022/11/08 02:54:09;;;;;;;2.10;1.17;;;;;;;5.03;73.76;92938.91;5029793;28;20539;-76
2022/11/08 02:56:34;;;;;;;2.13;1.23;;;;;;;5.07;74.06;92934.03;5041253;28;20068;-76
2022/11/08 02:59:00;;;;;;;1.70;0.98;;;;;;;5.09;73.79;92934.56;5044234;28;20129;-76
2022/11/08 03:01:25;;;;;;;3.00;1.20;;;;;;;5.12;73.39;92934.09;5048969;28;20069;-76
2022/11/08 03:03:51;;;;;;;2.78;1.23;;;;;;;5.15;73.28;92933.59;5036833;28;20124;-76
2022/11/08 03:06:16;;;;;;;2.47;1.27;;;;;;;5.13;73.37;92931.25;5029564;28;20053;-76
2022/11/08 03:08:42;;;;;;;2.55;1.30;;;;;;;5.14;73.11;92927.63;5013426;28;20052;-76
2022/11/08 03:11:07;;;;;;;2.30;1.30;;;;;;;5.16;73.45;92928.19;5045714;28;20155;-76
2022/11/08 03:13:33;;;;;;;1.83;1.20;;;;;;;5.19;73.80;92932.88;5044971;28;20091;-76
2022/11/08 03:16:03;;;;;;;2.15;1.30;;;;;;;5.20;73.31;92931.06;5040551;28;20036;-76
2022/11/08 03:18:29;;;;;;;1.38;1.00;;;;;;;5.21;74.13;92923.03;5049263;28;20032;-76
2022/11/08 03:20:54;;;;;;;2.35;1.20;;;;;;;5.19;74.51;92916.53;5031945;28;20041;-76
2022/11/08 03:23:20;;;;;;;1.98;1.15;;;;;;;5.21;74.45;92923.03;5035849;28;20068;-76
2022/11/08 03:25:46;;;;;;;3.45;1.40;;;;;;;5.21;74.79;92917.84;5034713;28;20182;-76
2022/11/08 03:28:11;;;;;;;2.95;1.42;;;;;;;5.22;75.39;92914.25;5020699;28;20044;-76
2022/11/08 03:30:37;;;;;;;2.28;1.20;;;;;;;5.25;74.75;92912.19;5018546;28;20041;-76
2022/11/08 03:33:03;;;;;;;3.25;1.58;;;;;;;5.26;74.56;92918.94;5039958;28;20470;-76
2022/11/08 03:35:29;;;;;;;3.20;1.45;;;;;;;5.25;74.78;92918.16;5038361;28;20118;-76
2022/11/08 03:37:56;;;;;;;2.75;1.30;;;;;;;5.29;74.36;92913.25;5029524;28;20116;-76
2022/11/08 03:40:23;;;;;;;2.17;1.30;;;;;;;5.30;74.05;92913.03;5012691;28;20063;-76
2022/11/08 03:42:48;;;;;;;2.78;1.30;;;;;;;5.31;73.94;92906.00;5030768;28;20037;-76
2022/11/08 03:45:15;;;;;;;1.95;1.17;;;;;;;5.32;73.96;92907.59;5034090;28;20042;-76
2022/11/08 03:47:46;;;;;;;2.47;1.30;;;;;;;5.30;73.93;92904.47;5030661;28;20415;-76
2022/11/08 03:50:13;;;;;;;1.75;1.08;;;;;;;5.36;73.53;92906.09;5028179;28;20046;-76
2022/11/08 03:52:43;;;;;;;1.77;1.17;;;;;;;5.35;72.94;92909.69;5035870;28;20053;-76
2022/11/08 03:55:10;;;;;;;2.15;1.13;;;;;;;5.39;72.78;92903.78;5031225;28;20044;-76
2022/11/08 03:57:37;;;;;;;1.85;1.10;;;;;;;5.43;72.76;92909.28;5030535;28;20060;-76
2022/11/08 04:00:05;;;;;;;1.95;1.30;;;;;;;5.42;72.90;92903.28;5032336;28;20038;-76
2022/11/08 04:02:37;;;;;;;2.63;1.27;;;;;;;5.41;73.00;92896.53;5045802;28;20380;-76
2022/11/08 04:05:03;;;;;;;3.00;1.38;;;;;;;5.43;73.23;92901.50;5039167;28;20399;-76
2022/11/08 04:07:29;;;;;;;4.53;1.95;;;;;;;5.41;73.31;92890.56;5038704;28;20034;-76
2022/11/08 04:09:55;;;;;;;8.05;1.80;;;;;;;5.47;72.97;92899.19;5038886;28;20087;-76
2022/11/08 04:15:15;;;;;;;3.80;1.80;;;;;;;5.51;72.55;92890.66;5050851;28;20614;-76
2022/11/08 04:23:15;;;;;;;4.45;2.10;;;;;;;5.57;72.78;92887.09;5050116;28;20045;-76
2022/11/08 04:25:41;;;;;;;7.00;2.20;;;;;;;5.59;73.47;92890.22;5033781;28;20026;-76
2022/11/08 04:28:07;;;;;;;6.20;2.20;;;;;;;5.60;73.74;92891.78;5032239;28;20041;-76
2022/11/08 04:30:33;;;;;;;4.55;2.03;;;;;;;5.60;73.47;92888.41;5040666;28;20030;-76
2022/11/08 04:33:00;;;;;;;4.90;2.13;;;;;;;5.61;73.24;92885.56;5039036;28;20117;-76
2022/11/08 04:35:27;;;;;;;5.95;2.40;;;;;;;5.58;73.30;92883.47;5053923;28;20041;-76
2022/11/08 04:37:57;;;;;;;4.18;1.92;;;;;;;5.61;73.40;92890.75;5051505;28;20576;-76
2022/11/08 04:40:23;;;;;;;4.65;2.15;;;;;;;5.61;73.30;92888.16;5045491;28;20040;-76
2022/11/08 04:42:49;;;;;;;5.05;2.10;;;;;;;5.62;73.13;92886.34;5033291;28;20064;-76
2022/11/08 04:45:14;;;;;;;5.10;2.00;;;;;;;5.61;72.56;92890.75;5034588;28;20464;-76
2022/11/08 04:47:40;;;;;;;4.05;1.90;;;;;;;5.61;72.65;92888.16;5047581;28;20124;-76
2022/11/08 04:50:05;;;;;;;4.55;1.85;;;;;;;5.62;72.55;92881.94;5037164;28;20112;-76
2022/11/08 04:52:31;;;;;;;3.80;1.90;;;;;;;5.62;72.60;92881.94;5033692;28;20064;-76
2022/11/08 04:54:57;;;;;;;4.75;1.98;;;;;;;5.62;72.65;92887.13;5045833;28;20047;-76
2022/11/08 04:57:22;;;;;;;6.20;2.20;;;;;;;5.62;72.58;92879.34;5034786;28;20026;-76
2022/11/08 04:59:48;;;;;;;3.88;1.92;;;;;;;5.62;72.23;92886.34;5041147;28;20071;-76
2022/11/08 05:02:13;;;;;;;4.25;1.92;;;;;;;5.63;72.10;92878.31;5041158;28;20040;-76
2022/11/08 05:04:39;;;;;;;4.90;1.75;;;;;;;5.66;72.10;92879.63;5018255;28;20088;-76
2022/11/08 05:07:04;;;;;;;5.35;2.05;;;;;;;5.67;72.19;92878.59;5017647;28;20092;-76
2022/11/08 05:09:30;;;;;;;5.90;2.10;;;;;;;5.69;72.00;92875.75;5053191;28;20036;-76
2022/11/08 05:11:55;;;;;;;4.95;2.00;;;;;;;5.68;71.86;92884.59;5012404;28;20057;-76
2022/11/08 05:14:21;;;;;;;4.70;2.10;;;;;;;5.62;72.10;92876.72;5033058;28;20076;-77
2022/11/08 05:16:47;;;;;;;4.45;1.98;;;;;;;5.63;71.78;92878.31;5043372;28;20141;-77
2022/11/08 05:19:12;;;;;;;4.97;2.10;;;;;;;5.66;71.61;92878.84;5028755;28;20076;-78
2022/11/08 05:24:22;;;;;;;4.47;1.90;;;;;;;5.66;71.10;92881.47;5022324;28;20124;-77
2022/11/08 05:26:48;;;;;;;5.45;2.13;;;;;;;5.66;70.88;92873.66;5047343;28;20167;-77
2022/11/08 05:29:15;;;;;;;4.80;2.22;;;;;;;5.65;70.64;92870.25;5046814;28;20475;-77
2022/11/08 05:31:40;;;;;;;3.63;1.58;;;;;;;5.67;69.94;92878.59;5031250;28;20037;-77
2022/11/08 05:34:06;;;;;;;3.97;1.75;;;;;;;5.68;69.59;92876.81;5042282;28;20414;-77
2022/11/08 05:36:32;;;;;;;3.50;1.70;;;;;;;5.63;69.50;92865.34;5031975;28;20087;-76
2022/11/08 05:38:58;;;;;;;3.95;1.70;;;;;;;5.71;69.28;92871.09;5027529;28;20048;-77
2022/11/08 05:41:25;;;;;;;3.35;1.67;;;;;;;5.66;69.34;92856.25;5034160;28;20516;-77
2022/11/08 05:43:53;;;;;;;3.78;1.60;;;;;;;5.76;69.92;92871.91;5031220;28;20022;-77
2022/11/08 05:46:20;;;;;;;3.33;1.70;;;;;;;5.75;69.78;92859.19;5043187;28;20521;-77
2022/11/08 05:48:46;;;;;;;3.83;1.63;;;;;;;5.78;69.50;92862.06;5049758;28;20410;-76
2022/11/08 05:51:13;;;;;;;3.38;1.65;;;;;;;5.78;69.10;92863.88;5039560;28;20677;-77
2022/11/08 05:53:40;;;;;;;6.32;1.92;;;;;;;5.77;69.52;92867.53;5030534;28;20038;-77
2022/11/08 05:56:05;;;;;;;2.63;1.45;;;;;;;5.78;69.44;92876.88;5032601;28;20026;-77
2022/11/08 05:58:32;;;;;;;3.92;1.70;;;;;;;5.74;69.56;92863.63;5031039;28;20166;-77
2022/11/08 06:01:04;;;;;;;3.20;1.60;;;;;;;5.76;69.84;92873.75;5035927;28;20037;-77
2022/11/08 06:03:30;;;;;;;3.22;1.80;;;;;;;5.80;69.83;92880.03;5036328;28;20028;-77
2022/11/08 06:06:03;;;;;;;2.97;1.55;;;;;;;5.81;69.70;92876.41;5066896;28;20033;-76
2022/11/08 06:08:29;;;;;;;3.17;1.63;;;;;;;5.87;69.57;92885.00;5032109;28;20112;-76
2022/11/08 06:11:26;;;;;;;3.67;1.45;;;;;;;5.89;69.18;92882.94;5033228;28;20197;-76
2022/11/08 06:13:52;;;;;;;2.92;1.60;;;;;;;5.94;68.59;92889.00;5016940;28;20200;-76
2022/11/08 06:16:19;;;;;;;2.40;1.33;;;;;;;6.00;68.27;92885.41;5049056;28;20416;-75
2022/11/08 06:18:45;;;;;;;2.58;1.30;;;;;;;6.05;67.95;92884.66;5029050;28;20031;-76
2022/11/08 06:21:14;;;;;;;2.10;1.30;;;;;;;6.10;68.05;92889.91;5028958;28;20045;-76
2022/11/08 06:23:40;;;;;;;3.03;1.52;;;;;;;6.13;67.47;92892.03;5029518;28;20112;-76
2022/11/08 06:26:06;;;;;;;4.45;1.42;;;;;;;6.19;67.58;92879.84;5031222;28;20037;-78
2022/11/08 06:28:33;;;;;;;2.58;1.40;;;;;;;6.22;67.09;92884.56;5031240;28;20033;-78
2022/11/08 06:31:00;;;;;;;6.05;2.20;;;;;;;6.36;66.40;92900.50;5039707;28;20439;-79
2022/11/08 06:33:27;;;;;;;5.18;2.60;;;;;;;6.72;66.10;92900.75;5036926;28;20041;-78
2022/11/08 06:35:53;;;;;;;5.22;1.95;;;;;;;7.28;65.72;92899.16;5050345;28;20025;-78
2022/11/08 06:38:18;;;;;;;3.00;1.80;;;;;;;7.55;64.77;92898.22;5052053;28;20040;-78
2022/11/08 06:40:44;;;;;;;2.28;1.38;;;;;;;7.55;64.18;92900.81;5051878;28;20052;-75
2022/11/08 06:43:10;;;;;;;2.45;1.27;;;;;;;7.48;63.71;92897.69;5031990;28;20034;-78
2022/11/08 06:45:37;;;;;;;2.42;1.30;;;;;;;7.38;64.30;92905.44;5029346;28;20160;-78
2022/11/08 06:48:04;;;;;;;3.08;1.50;;;;;;;7.22;65.19;92899.41;5026230;28;20041;-78
2022/11/08 06:50:32;;;;;;;3.75;1.60;;;;;;;7.07;66.07;92905.34;5031563;28;20037;-78
2022/11/08 06:52:59;;;;;;;2.63;1.55;;;;;;;7.01;66.95;92907.13;5026168;28;20171;-78
2022/11/08 06:55:25;;;;;;;3.45;1.55;;;;;;;6.98;67.04;92906.84;5031397;28;20106;-78
2022/11/08 06:57:51;;;;;;;3.28;1.65;;;;;;;6.93;67.65;92910.19;5030655;28;20072;-78
2022/11/08 07:00:18;;;;;;;3.78;1.73;;;;;;;6.86;67.50;92907.81;5031687;28;20727;-78
2022/11/08 07:02:44;;;;;;;2.80;1.45;;;;;;;6.85;67.81;92911.47;5030441;28;20546;-77
2022/11/08 07:05:10;;;;;;;3.75;1.70;;;;;;;6.81;69.46;92918.22;5039031;28;20036;-77
2022/11/08 07:07:36;;;;;;;2.60;1.35;;;;;;;6.77;70.90;92913.75;5037257;28;20033;-76
2022/11/08 07:10:03;;;;;;;3.60;1.52;;;;;;;6.77;71.04;92918.97;4995991;28;20044;-77
2022/11/08 07:12:28;;;;;;;2.60;1.30;;;;;;;6.77;70.88;92922.34;5031246;28;20040;-78
2022/11/08 07:14:54;;;;;;;2.78;1.38;;;;;;;6.78;71.28;92923.16;5028079;28;20030;-77
2022/11/08 07:17:19;;;;;;;3.05;1.25;;;;;;;6.78;70.68;92928.34;5028585;28;20679;-77
2022/11/08 07:19:45;;;;;;;2.85;1.60;;;;;;;6.79;70.17;92925.47;5028986;28;20037;-79
2022/11/08 07:22:10;;;;;;;3.58;1.35;;;;;;;6.78;71.26;92918.72;5015146;28;20088;-78
2022/11/08 07:24:36;;;;;;;1.98;1.20;;;;;;;6.84;71.53;92922.91;5006528;28;20045;-78
2022/11/08 07:27:01;;;;;;;4.60;1.63;;;;;;;6.86;71.68;92933.84;5010105;28;20404;-78
2022/11/08 07:29:27;;;;;;;5.05;1.58;;;;;;;6.90;71.07;92930.75;5029174;28;20097;-78
2022/11/08 07:31:52;;;;;;;4.75;1.25;;;;;;;6.93;71.28;92931.03;5031196;28;20041;-78
2022/11/08 07:34:18;;;;;;;2.55;1.40;;;;;;;6.97;71.61;92931.31;5030893;28;20092;-78
2022/11/08 07:36:44;;;;;;;9.35;1.60;;;;;;;6.98;71.42;92927.66;5029538;28;20037;-78
2022/11/08 07:39:09;;;;;;;5.20;1.40;;;;;;;7.05;70.89;92928.25;5030872;28;20036;-78
2022/11/08 07:41:35;;;;;;;2.75;1.30;;;;;;;7.09;70.01;92931.88;5029302;28;20376;-78
2022/11/08 07:44:00;;;;;;;3.05;1.42;;;;;;;7.09;70.32;92934.50;5028132;28;20044;-79
2022/11/08 07:46:26;;;;;;;2.63;1.30;;;;;;;7.13;70.74;92935.56;5029782;28;20435;-78
2022/11/08 07:48:51;;;;;;;4.93;1.52;;;;;;;7.16;72.00;92939.47;5028978;28;20077;-78
2022/11/08 07:51:17;;;;;;;3.50;1.60;;;;;;;7.20;72.21;92938.72;5029652;28;20151;-78
2022/11/08 07:53:43;;;;;;;6.35;2.05;;;;;;;7.21;72.77;92936.91;5023350;28;20057;-78
2022/11/08 07:56:09;;;;;;;4.75;1.70;;;;;;;7.23;74.07;92940.03;5010465;28;20049;-78
2022/11/08 07:58:35;;;;;;;4.30;1.70;;;;;;;7.25;74.03;92949.16;5018492;28;20030;-78
2022/11/08 08:01:02;;;;;;;4.10;1.45;;;;;;;7.27;73.61;92941.88;5017697;28;20041;-78
2022/11/08 08:03:28;;;;;;;3.03;1.50;;;;;;;7.33;73.18;92942.69;5010956;28;20054;-78
2022/11/08 08:05:54;;;;;;;2.38;1.30;;;;;;;7.38;73.08;92947.13;5009631;28;20044;-77
2022/11/08 08:08:20;;;;;;;3.83;1.60;;;;;;;7.39;73.77;92946.88;5027078;28;20037;-77
2022/11/08 08:10:46;;;;;;;2.75;1.50;;;;;;;7.42;73.04;92942.97;5021928;28;20037;-78
2022/11/08 08:13:12;;;;;;;2.45;1.25;;;;;;;7.40;72.23;92929.41;5010832;28;20408;-78
2022/11/08 08:15:38;;;;;;;6.15;3.85;;;;;;;7.47;72.37;92938.56;5025481;28;20050;-78
2022/11/08 08:18:05;;;;;;;7.72;3.53;;;;;;;7.47;73.41;92940.38;5029209;28;20043;-77
2022/11/08 08:20:32;;;;;;;5.30;2.60;;;;;;;7.54;73.91;92948.75;5030348;28;20061;-77
2022/11/08 08:22:58;;;;;;;4.05;2.00;;;;;;;7.57;75.08;92950.84;5030437;28;20047;-78
2022/11/08 08:25:24;;;;;;;3.03;1.48;;;;;;;7.62;75.42;92953.47;5017033;28;20025;-78
2022/11/08 08:27:52;;;;;;;3.88;1.35;;;;;;;7.65;74.87;92952.16;5013189;28;20092;-78
2022/11/08 08:30:19;;;;;;;4.65;1.30;;;;;;;7.69;73.69;92961.03;5022057;28;20064;-77
2022/11/08 08:32:46;;;;;;;4.13;2.00;;;;;;;7.73;72.16;92964.72;5020715;28;20558;-77
2022/11/08 08:35:11;;;;;;;2.83;1.35;;;;;;;7.76;70.58;92963.41;5028060;28;20026;-77
2022/11/08 08:37:37;;;;;;;2.45;1.30;;;;;;;7.79;70.64;92966.28;5030057;28;20045;-75
2022/11/08 08:40:04;;;;;;;3.15;1.40;;;;;;;7.82;71.78;92965.00;5028661;28;20042;-77
2022/11/08 08:42:32;;;;;;;3.83;1.50;;;;;;;7.87;72.21;92967.59;5009615;28;20065;-77
2022/11/08 08:44:57;;;;;;;9.65;1.45;;;;;;;7.90;73.46;92967.88;5009115;28;20073;-77
2022/11/08 08:47:23;;;;;;;6.47;1.50;;;;;;;7.93;73.48;92963.97;5014810;28;20033;-77
2022/11/08 08:49:49;;;;;;;3.80;1.48;;;;;;;7.96;73.96;92968.66;5009945;28;20042;-77
2022/11/08 08:52:14;;;;;;;4.35;1.40;;;;;;;7.99;73.65;92968.16;5026850;28;20072;-77
2022/11/08 08:54:40;;;;;;;7.20;1.55;;;;;;;8.02;73.46;92966.88;5012601;28;20061;-77
2022/11/08 08:57:05;;;;;;;4.20;1.55;;;;;;;8.06;73.61;92967.91;5020097;28;20040;-77
2022/11/08 08:59:31;;;;;;;4.32;2.15;;;;;;;8.09;73.47;92965.56;5014911;28;20720;-77
2022/11/08 09:01:58;;;;;;;6.05;2.20;;;;;;;8.12;74.55;92965.03;5033512;28;20037;-77
2022/11/08 09:04:24;;;;;;;5.28;1.40;;;;;;;8.16;74.49;92974.97;5033361;28;20034;-77
2022/11/08 09:06:49;;;;;;;5.53;1.30;;;;;;;8.19;72.15;92977.84;5032027;28;20048;-77
2022/11/08 09:09:15;;;;;;;3.65;1.40;;;;;;;8.24;71.23;92977.06;5033276;28;20043;-77
2022/11/08 09:11:41;;;;;;;3.00;1.40;;;;;;;8.27;70.54;92969.50;5037796;28;20032;-77
2022/11/08 09:14:07;;;;;;;3.28;1.58;;;;;;;8.31;68.78;92967.19;5053304;28;20037;-77
2022/11/08 09:16:32;;;;;;;2.58;1.50;;;;;;;8.38;68.61;92975.53;5053217;28;20083;-77
2022/11/08 09:18:58;;;;;;;2.28;1.40;;;;;;;8.43;68.03;92966.94;5051809;28;20048;-77
2022/11/08 09:21:23;;;;;;;3.30;1.63;;;;;;;8.47;67.12;92976.59;5039933;28;20030;-77
2022/11/08 09:23:49;;;;;;;5.18;1.80;;;;;;;8.50;66.86;92965.63;5036146;28;20067;-77
2022/11/08 09:26:15;;;;;;;5.47;1.50;;;;;;;8.55;67.44;92963.00;5051853;28;20047;-77
2022/11/08 09:28:40;;;;;;;2.38;1.20;;;;;;;8.63;67.76;92974.00;5035099;28;20064;-77
2022/11/08 09:31:08;;;;;;;2.92;1.30;;;;;;;8.68;68.69;92979.97;5048592;28;20064;-77
2022/11/08 09:33:35;;;;;;;2.67;1.40;;;;;;;8.70;68.53;92969.28;5033092;28;20412;-77
2022/11/08 09:36:03;;;;;;;3.08;1.42;;;;;;;8.73;68.02;92968.75;5033077;28;20151;-79
2022/11/08 09:38:29;;;;;;;5.20;1.55;;;;;;;8.77;68.31;92972.41;5016048;28;20029;-77
2022/11/08 09:41:14;;;;;;;2.40;1.30;;;;;;;8.81;68.56;92980.50;5017916;28;20069;-77
2022/11/08 09:44:00;;;;;;;2.90;1.58;;;;;;;8.82;67.81;92977.63;5026376;28;20699;-77
2022/11/08 09:46:51;;;;;;;3.58;1.52;;;;;;;8.86;67.51;92976.06;5032550;28;20573;-77
2022/11/08 09:49:26;;;;;;;2.95;1.48;;;;;;;8.90;66.86;92963.25;5030852;28;20113;-77
2022/11/08 09:51:52;;;;;;;2.20;1.30;;;;;;;8.91;66.40;92962.97;5028569;28;20029;-77
2022/11/08 09:54:26;;;;;;;2.17;1.30;;;;;;;8.98;66.64;92965.31;5041061;28;20078;-77
2022/11/08 09:56:54;;;;;;;4.03;1.30;;;;;;;9.04;66.87;92971.34;5015951;28;20088;-77
2022/11/08 09:59:33;;;;;;;2.95;1.40;;;;;;;9.09;67.20;92973.94;5035398;28;20040;-77
2022/11/08 10:01:59;;;;;;;3.50;1.60;;;;;;;9.15;67.83;92978.09;5015730;28;20096;-77
2022/11/08 10:04:28;;;;;;;8.13;4.15;;;;;;;9.23;69.15;92974.97;5037239;28;20037;-77
2022/11/08 10:07:14;;;;;;;7.43;3.45;;;;;;;9.35;68.95;92982.50;5052149;28;20055;-77
2022/11/08 10:10:10;;;;;;;5.45;3.55;;;;;;;9.45;67.29;92972.00;5034153;28;20556;-77
2022/11/08 10:12:39;;;;;;;7.13;3.13;;;;;;;9.57;66.00;92971.72;5012694;28;20116;-77
2022/11/08 10:15:28;;;;;;;5.32;3.40;;;;;;;9.69;63.88;92971.41;5031764;28;20563;-77
2022/11/08 10:18:02;;;;;;;5.15;2.38;;;;;;;9.80;62.82;92972.91;5040725;28;20077;-77
2022/11/08 10:20:28;;;;;;;2.67;1.70;;;;;;;9.89;61.22;92965.28;5031785;28;20033;-77
2022/11/08 10:23:09;;;;;;;2.83;1.40;;;;;;;9.95;60.32;92966.81;5031880;28;20032;-77
2022/11/08 10:25:44;;;;;;;4.45;1.60;;;;;;;10.03;58.81;92958.41;5030854;28;20026;-77
2022/11/08 10:28:16;;;;;;;2.08;1.23;;;;;;;10.11;58.64;92963.09;5032796;28;20037;-77
2022/11/08 10:30:46;;;;;;;2.88;1.52;;;;;;;10.16;58.50;92965.66;5037474;28;20074;-77
2022/11/08 10:33:21;;;;;;;4.50;2.15;;;;;;;10.19;60.42;92959.88;5030497;28;20033;-77
2022/11/08 10:36:01;;;;;;;6.05;2.03;;;;;;;10.27;61.02;92965.56;5029196;28;20423;-77
2022/11/08 10:38:42;;;;;;;2.92;1.67;;;;;;;10.30;60.74;92967.69;5032152;28;20157;-78
2022/11/08 10:41:16;;;;;;;5.63;2.40;;;;;;;10.35;63.52;92957.19;5031027;28;20037;-78
2022/11/08 10:44:01;;;;;;;4.05;2.10;;;;;;;10.40;67.65;92954.53;5026105;28;20056;-78
2022/11/08 10:46:36;;;;;;;8.50;2.33;;;;;;;10.46;67.97;92956.06;5032431;28;20045;-78
2022/11/08 10:49:21;;;;;;;3.72;2.00;;;;;;;10.53;56.71;92951.28;5016150;28;20121;-78
2022/11/08 10:51:53;;;;;;;4.05;1.60;;;;;;;10.45;53.60;92941.41;5012337;28;20038;-78
2022/11/08 10:54:46;;;;;;;3.03;1.30;;;;;;;10.45;55.12;92943.25;5012197;28;20376;-78
2022/11/08 10:57:16;;;;;;;3.40;1.23;;;;;;;10.53;55.81;92946.06;5021272;28;20036;-78
2022/11/08 10:59:42;;;;;;;3.10;1.55;;;;;;;10.56;56.51;92940.28;5031394;28;20033;-78
2022/11/08 11:02:19;;;;;;;4.43;1.50;;;;;;;10.67;56.74;92937.56;5023092;28;20037;-78
2022/11/08 11:04:45;;;;;;;3.80;1.58;;;;;;;10.76;56.11;92935.91;5019094;28;20731;-77
2022/11/08 11:07:40;;;;;;;2.45;1.50;;;;;;;10.91;56.19;92935.78;5024036;28;20034;-77
2022/11/08 11:10:28;;;;;;;4.43;2.25;;;;;;;10.96;58.34;92935.72;5014413;28;20520;-78
2022/11/08 11:13:01;;;;;;;3.10;1.58;;;;;;;11.10;55.87;92933.25;5010312;28;20515;-77
2022/11/08 11:15:31;;;;;;;12.98;6.40;;;;;;;10.91;57.96;92930.53;5011095;28;20038;-77
2022/11/08 11:17:57;;;;;;;4.90;1.70;;;;;;;10.74;55.56;92924.94;5029799;28;20372;-77
2022/11/08 11:20:23;;;;;;;2.28;1.30;;;;;;;10.65;56.74;92923.97;5030542;28;20044;-77
2022/11/08 11:22:50;;;;;;;3.30;1.30;;;;;;;10.64;53.53;92920.56;5013249;28;20052;-78
2022/11/08 11:25:19;;;;;;;2.70;1.48;;;;;;;10.61;56.61;92919.28;5023005;28;20030;-78
2022/11/08 11:27:53;;;;;;;4.47;1.90;;;;;;;10.61;57.98;92919.28;5031123;28;20037;-78
2022/11/08 11:30:28;;;;;;;3.45;1.65;;;;;;;10.68;57.43;92915.59;5020400;28;20507;-78
2022/11/08 11:33:22;;;;;;;3.40;1.70;;;;;;;10.79;56.64;92909.97;5029001;28;20084;-78
2022/11/08 11:35:53;;;;;;;3.53;1.45;;;;;;;11.01;53.48;92904.25;5020547;28;20033;-77
2022/11/08 11:38:41;;;;;;;2.92;1.50;;;;;;;10.90;53.75;92900.19;5026027;28;20132;-78
2022/11/08 11:41:17;;;;;;;2.55;1.25;;;;;;;10.92;56.28;92898.06;5020642;28;20035;-77
2022/11/08 11:43:52;;;;;;;3.60;1.70;;;;;;;10.93;57.47;92898.84;5030724;28;20137;-77
2022/11/08 11:46:37;;;;;;;3.40;1.67;;;;;;;10.88;54.64;92889.19;5026290;28;20045;-78
2022/11/08 11:49:11;;;;;;;2.97;1.50;;;;;;;10.81;53.51;92891.38;5018094;28;20033;-78
2022/11/08 11:51:37;;;;;;;2.30;1.23;;;;;;;10.86;54.54;92891.31;5010983;28;20038;-78
2022/11/08 11:54:05;;;;;;;3.08;1.40;;;;;;;10.88;55.71;92877.94;5011172;28;20442;-78
2022/11/08 11:57:01;;;;;;;2.10;1.27;;;;;;;11.07;56.77;92884.00;5026163;28;20034;-78
2022/11/08 11:59:48;;;;;;;4.63;1.65;;;;;;;11.18;55.65;92879.44;5027985;28;20571;-78
2022/11/08 12:02:25;;;;;;;5.05;1.60;;;;;;;11.14;56.85;92881.06;5029292;28;20129;-77
2022/11/08 12:05:20;;;;;;;7.47;1.73;;;;;;;11.19;58.67;92881.00;5026326;28;20117;-78
2022/11/08 12:08:44;;;;;;;2.72;1.55;;;;;;;11.14;57.88;92876.59;5011286;28;20038;-78
2022/11/08 12:11:28;;;;;;;2.75;1.50;;;;;;;11.18;58.49;92876.81;5019391;28;20101;-78